sensor_id;sensor_type;location;lat;lon;timestamp;temperature;humidity
27114;DHT22;14648;49.730;8.614;2023-09-30T00:01:42;19.20;58.30
27114;DHT22;14648;49.730;8.614;2023-09-30T00:04:09;19.20;58.30
27114;DHT22;14648;49.730;8.614;2023-09-30T00:06:35;19.20;58.40
27114;DHT22;14648;49.730;8.614;2023-09-30T00:09:01;19.10;58.50
27114;DHT22;14648;49.730;8.614;2023-09-30T00:11:27;19.10;58.60
27114;DHT22;14648;49.730;8.614;2023-09-30T00:13:53;19.00;58.60
27114;DHT22;14648;49.730;8.614;2023-09-30T00:16:18;19.00;58.70
27114;DHT22;14648;49.730;8.614;2023-09-30T00:18:44;19.00;58.60
27114;DHT22;14648;49.730;8.614;2023-09-30T00:21:10;18.90;58.70
27114;DHT22;14648;49.730;8.614;2023-09-30T00:23:36;18.80;58.80
27114;DHT22;14648;49.730;8.614;2023-09-30T00:26:02;18.80;58.90
27114;DHT22;14648;49.730;8.614;2023-09-30T00:28:28;18.80;58.90
27114;DHT22;14648;49.730;8.614;2023-09-30T00:30:54;18.70;58.90
27114;DHT22;14648;49.730;8.614;2023-09-30T00:33:19;18.70;59.00
27114;DHT22;14648;49.730;8.614;2023-09-30T00:35:45;18.70;59.10
27114;DHT22;14648;49.730;8.614;2023-09-30T00:38:11;18.60;59.10
27114;DHT22;14648;49.730;8.614;2023-09-30T00:40:37;18.50;59.10
27114;DHT22;14648;49.730;8.614;2023-09-30T00:43:03;18.50;59.30
27114;DHT22;14648;49.730;8.614;2023-09-30T00:45:30;18.50;59.30
27114;DHT22;14648;49.730;8.614;2023-09-30T00:47:56;18.50;59.30
27114;DHT22;14648;49.730;8.614;2023-09-30T00:50:22;18.30;59.40
27114;DHT22;14648;49.730;8.614;2023-09-30T00:52:49;18.30;59.60
27114;DHT22;14648;49.730;8.614;2023-09-30T00:55:15;18.30;59.60
27114;DHT22;14648;49.730;8.614;2023-09-30T00:57:42;18.30;59.60
27114;DHT22;14648;49.730;8.614;2023-09-30T01:00:10;18.30;59.60
27114;DHT22;14648;49.730;8.614;2023-09-30T01:02:39;18.20;59.60
27114;DHT22;14648;49.730;8.614;2023-09-30T01:05:06;18.20;59.60
27114;DHT22;14648;49.730;8.614;2023-09-30T01:07:34;18.30;59.60
27114;DHT22;14648;49.730;8.614;2023-09-30T01:10:00;18.30;59.60
27114;DHT22;14648;49.730;8.614;2023-09-30T01:12:27;18.30;59.60
27114;DHT22;14648;49.730;8.614;2023-09-30T01:14:57;18.30;59.60
27114;DHT22;14648;49.730;8.614;2023-09-30T01:17:25;18.30;59.60
27114;DHT22;14648;49.730;8.614;2023-09-30T01:19:51;18.30;59.60
27114;DHT22;14648;49.730;8.614;2023-09-30T01:22:17;18.30;59.60
27114;DHT22;14648;49.730;8.614;2023-09-30T01:24:43;18.30;59.70
27114;DHT22;14648;49.730;8.614;2023-09-30T01:27:09;18.30;59.70
27114;DHT22;14648;49.730;8.614;2023-09-30T01:29:35;18.30;59.70
27114;DHT22;14648;49.730;8.614;2023-09-30T01:32:04;18.30;60.50
27114;DHT22;14648;49.730;8.614;2023-09-30T01:34:34;18.40;59.70
27114;DHT22;14648;49.730;8.614;2023-09-30T01:37:00;18.40;59.70
27114;DHT22;14648;49.730;8.614;2023-09-30T01:39:26;18.40;59.80
27114;DHT22;14648;49.730;8.614;2023-09-30T01:41:51;18.40;59.80
27114;DHT22;14648;49.730;8.614;2023-09-30T01:44:17;18.40;59.80
27114;DHT22;14648;49.730;8.614;2023-09-30T01:46:43;18.40;59.80
27114;DHT22;14648;49.730;8.614;2023-09-30T01:49:09;18.40;59.80
27114;DHT22;14648;49.730;8.614;2023-09-30T01:51:35;18.40;59.90
27114;DHT22;14648;49.730;8.614;2023-09-30T01:54:01;18.40;59.90
27114;DHT22;14648;49.730;8.614;2023-09-30T01:56:26;18.40;59.90
27114;DHT22;14648;49.730;8.614;2023-09-30T01:58:52;18.40;60.00
27114;DHT22;14648;49.730;8.614;2023-09-30T02:01:18;18.40;60.00
27114;DHT22;14648;49.730;8.614;2023-09-30T02:03:43;18.40;60.00
27114;DHT22;14648;49.730;8.614;2023-09-30T02:06:09;18.40;60.00
27114;DHT22;14648;49.730;8.614;2023-09-30T02:08:35;18.40;60.10
27114;DHT22;14648;49.730;8.614;2023-09-30T02:11:02;18.40;60.10
27114;DHT22;14648;49.730;8.614;2023-09-30T02:13:32;18.40;60.10
27114;DHT22;14648;49.730;8.614;2023-09-30T02:16:00;18.40;60.10
27114;DHT22;14648;49.730;8.614;2023-09-30T02:18:27;18.40;60.20
27114;DHT22;14648;49.730;8.614;2023-09-30T02:20:53;18.40;60.30
27114;DHT22;14648;49.730;8.614;2023-09-30T02:23:18;18.40;60.30
27114;DHT22;14648;49.730;8.614;2023-09-30T02:25:44;18.40;60.30
27114;DHT22;14648;49.730;8.614;2023-09-30T02:28:10;18.40;60.30
27114;DHT22;14648;49.730;8.614;2023-09-30T02:30:36;18.30;60.40
27114;DHT22;14648;49.730;8.614;2023-09-30T02:33:02;18.30;60.40
27114;DHT22;14648;49.730;8.614;2023-09-30T02:35:29;18.30;60.50
27114;DHT22;14648;49.730;8.614;2023-09-30T02:37:55;18.30;60.50
27114;DHT22;14648;49.730;8.614;2023-09-30T02:40:20;18.30;60.60
27114;DHT22;14648;49.730;8.614;2023-09-30T02:42:50;18.30;60.60
27114;DHT22;14648;49.730;8.614;2023-09-30T02:45:17;18.30;60.60
27114;DHT22;14648;49.730;8.614;2023-09-30T02:47:42;18.30;60.60
27114;DHT22;14648;49.730;8.614;2023-09-30T02:50:09;18.30;60.60
27114;DHT22;14648;49.730;8.614;2023-09-30T02:52:39;18.20;60.60
27114;DHT22;14648;49.730;8.614;2023-09-30T02:55:09;18.20;60.70
27114;DHT22;14648;49.730;8.614;2023-09-30T02:57:35;18.20;60.70
27114;DHT22;14648;49.730;8.614;2023-09-30T03:00:05;18.30;60.80
27114;DHT22;14648;49.730;8.614;2023-09-30T03:02:55;18.30;60.90
27114;DHT22;14648;49.730;8.614;2023-09-30T03:05:21;18.20;60.70
27114;DHT22;14648;49.730;8.614;2023-09-30T03:07:47;18.20;60.80
27114;DHT22;14648;49.730;8.614;2023-09-30T03:10:16;18.20;60.80
27114;DHT22;14648;49.730;8.614;2023-09-30T03:12:53;18.20;60.80
27114;DHT22;14648;49.730;8.614;2023-09-30T03:15:19;18.20;60.90
27114;DHT22;14648;49.730;8.614;2023-09-30T03:17:45;18.30;61.00
27114;DHT22;14648;49.730;8.614;2023-09-30T03:20:12;18.20;61.00
27114;DHT22;14648;49.730;8.614;2023-09-30T03:22:40;18.20;61.10
27114;DHT22;14648;49.730;8.614;2023-09-30T03:25:07;18.20;61.80
27114;DHT22;14648;49.730;8.614;2023-09-30T03:27:34;18.20;61.10
27114;DHT22;14648;49.730;8.614;2023-09-30T03:30:01;18.20;61.10
27114;DHT22;14648;49.730;8.614;2023-09-30T03:32:28;18.10;61.20
27114;DHT22;14648;49.730;8.614;2023-09-30T03:34:55;18.10;61.20
27114;DHT22;14648;49.730;8.614;2023-09-30T03:37:24;18.10;61.30
27114;DHT22;14648;49.730;8.614;2023-09-30T03:39:55;18.00;61.20
27114;DHT22;14648;49.730;8.614;2023-09-30T03:42:21;18.00;61.20
27114;DHT22;14648;49.730;8.614;2023-09-30T03:44:47;18.00;61.30
27114;DHT22;14648;49.730;8.614;2023-09-30T03:47:16;17.90;61.30
27114;DHT22;14648;49.730;8.614;2023-09-30T03:49:44;17.90;61.40
27114;DHT22;14648;49.730;8.614;2023-09-30T03:52:10;17.90;61.40
27114;DHT22;14648;49.730;8.614;2023-09-30T03:54:37;17.80;61.40
27114;DHT22;14648;49.730;8.614;2023-09-30T03:57:03;17.80;61.40
27114;DHT22;14648;49.730;8.614;2023-09-30T03:59:29;17.80;61.40
27114;DHT22;14648;49.730;8.614;2023-09-30T04:01:56;17.70;61.50
27114;DHT22;14648;49.730;8.614;2023-09-30T04:04:23;17.70;61.50
27114;DHT22;14648;49.730;8.614;2023-09-30T04:06:49;17.70;61.50
27114;DHT22;14648;49.730;8.614;2023-09-30T04:09:17;17.70;61.50
27114;DHT22;14648;49.730;8.614;2023-09-30T04:11:43;17.70;61.60
27114;DHT22;14648;49.730;8.614;2023-09-30T04:14:09;17.70;61.60
27114;DHT22;14648;49.730;8.614;2023-09-30T04:16:35;17.70;61.60
27114;DHT22;14648;49.730;8.614;2023-09-30T04:19:03;17.70;61.60
27114;DHT22;14648;49.730;8.614;2023-09-30T04:21:31;17.60;61.40
27114;DHT22;14648;49.730;8.614;2023-09-30T04:24:00;17.60;61.40
27114;DHT22;14648;49.730;8.614;2023-09-30T04:26:26;17.60;61.50
27114;DHT22;14648;49.730;8.614;2023-09-30T04:28:52;17.60;61.50
27114;DHT22;14648;49.730;8.614;2023-09-30T04:31:19;17.60;61.40
27114;DHT22;14648;49.730;8.614;2023-09-30T04:33:47;17.60;61.50
27114;DHT22;14648;49.730;8.614;2023-09-30T04:36:13;17.60;61.50
27114;DHT22;14648;49.730;8.614;2023-09-30T04:38:39;17.50;61.50
27114;DHT22;14648;49.730;8.614;2023-09-30T04:41:05;17.50;61.60
27114;DHT22;14648;49.730;8.614;2023-09-30T04:43:33;17.50;61.50
27114;DHT22;14648;49.730;8.614;2023-09-30T04:45:59;17.40;61.40
27114;DHT22;14648;49.730;8.614;2023-09-30T04:48:25;17.40;61.50
27114;DHT22;14648;49.730;8.614;2023-09-30T04:50:50;17.40;61.60
27114;DHT22;14648;49.730;8.614;2023-09-30T04:53:20;17.40;61.50
27114;DHT22;14648;49.730;8.614;2023-09-30T04:55:48;17.30;61.50
27114;DHT22;14648;49.730;8.614;2023-09-30T04:58:17;17.30;61.50
27114;DHT22;14648;49.730;8.614;2023-09-30T05:00:43;17.30;62.30
27114;DHT22;14648;49.730;8.614;2023-09-30T05:03:09;17.30;61.50
27114;DHT22;14648;49.730;8.614;2023-09-30T05:05:34;17.30;61.50
27114;DHT22;14648;49.730;8.614;2023-09-30T05:08:01;17.30;61.50
27114;DHT22;14648;49.730;8.614;2023-09-30T05:10:27;17.20;61.40
27114;DHT22;14648;49.730;8.614;2023-09-30T05:12:52;17.30;61.50
27114;DHT22;14648;49.730;8.614;2023-09-30T05:15:20;17.20;61.40
27114;DHT22;14648;49.730;8.614;2023-09-30T05:17:47;17.20;61.30
27114;DHT22;14648;49.730;8.614;2023-09-30T05:20:14;17.20;61.40
27114;DHT22;14648;49.730;8.614;2023-09-30T05:22:43;17.20;61.40
27114;DHT22;14648;49.730;8.614;2023-09-30T05:25:12;17.20;61.30
27114;DHT22;14648;49.730;8.614;2023-09-30T05:27:38;17.20;61.40
27114;DHT22;14648;49.730;8.614;2023-09-30T05:30:05;17.20;61.40
27114;DHT22;14648;49.730;8.614;2023-09-30T05:32:32;17.10;61.40
27114;DHT22;14648;49.730;8.614;2023-09-30T05:34:58;17.10;61.40
27114;DHT22;14648;49.730;8.614;2023-09-30T05:37:24;17.20;61.40
27114;DHT22;14648;49.730;8.614;2023-09-30T05:39:51;17.20;61.40
27114;DHT22;14648;49.730;8.614;2023-09-30T05:42:17;17.10;61.50
27114;DHT22;14648;49.730;8.614;2023-09-30T05:44:44;17.20;61.50
27114;DHT22;14648;49.730;8.614;2023-09-30T05:47:11;17.10;61.50
27114;DHT22;14648;49.730;8.614;2023-09-30T05:49:37;17.10;61.50
27114;DHT22;14648;49.730;8.614;2023-09-30T05:52:03;17.10;61.50
27114;DHT22;14648;49.730;8.614;2023-09-30T05:54:29;17.10;61.50
27114;DHT22;14648;49.730;8.614;2023-09-30T05:56:55;17.10;61.50
27114;DHT22;14648;49.730;8.614;2023-09-30T05:59:21;17.10;61.60
27114;DHT22;14648;49.730;8.614;2023-09-30T06:01:47;17.10;61.60
27114;DHT22;14648;49.730;8.614;2023-09-30T06:04:13;17.10;61.50
27114;DHT22;14648;49.730;8.614;2023-09-30T06:06:38;17.10;61.50
27114;DHT22;14648;49.730;8.614;2023-09-30T06:09:04;17.10;61.50
27114;DHT22;14648;49.730;8.614;2023-09-30T06:11:33;17.10;61.40
27114;DHT22;14648;49.730;8.614;2023-09-30T06:13:59;17.10;61.40
27114;DHT22;14648;49.730;8.614;2023-09-30T06:16:27;17.10;61.40
27114;DHT22;14648;49.730;8.614;2023-09-30T06:18:53;17.10;61.40
27114;DHT22;14648;49.730;8.614;2023-09-30T06:21:24;17.10;61.40
27114;DHT22;14648;49.730;8.614;2023-09-30T06:23:50;17.20;61.40
27114;DHT22;14648;49.730;8.614;2023-09-30T06:26:19;17.20;61.40
27114;DHT22;14648;49.730;8.614;2023-09-30T06:28:47;17.20;61.40
27114;DHT22;14648;49.730;8.614;2023-09-30T06:31:13;17.20;61.40
27114;DHT22;14648;49.730;8.614;2023-09-30T06:33:39;17.20;61.50
27114;DHT22;14648;49.730;8.614;2023-09-30T06:36:12;17.20;61.50
27114;DHT22;14648;49.730;8.614;2023-09-30T06:38:42;17.10;61.50
27114;DHT22;14648;49.730;8.614;2023-09-30T06:41:09;17.20;61.40
27114;DHT22;14648;49.730;8.614;2023-09-30T06:43:40;17.20;61.40
27114;DHT22;14648;49.730;8.614;2023-09-30T06:46:07;17.20;61.50
27114;DHT22;14648;49.730;8.614;2023-09-30T06:48:37;17.10;61.60
27114;DHT22;14648;49.730;8.614;2023-09-30T06:51:03;17.10;61.80
27114;DHT22;14648;49.730;8.614;2023-09-30T06:53:28;17.10;61.90
27114;DHT22;14648;49.730;8.614;2023-09-30T06:55:54;17.10;62.00
27114;DHT22;14648;49.730;8.614;2023-09-30T06:58:20;17.10;62.10
27114;DHT22;14648;49.730;8.614;2023-09-30T07:00:48;17.10;62.00
27114;DHT22;14648;49.730;8.614;2023-09-30T07:03:16;17.10;62.10
27114;DHT22;14648;49.730;8.614;2023-09-30T07:05:42;17.10;62.10
27114;DHT22;14648;49.730;8.614;2023-09-30T07:08:11;17.20;62.10
27114;DHT22;14648;49.730;8.614;2023-09-30T07:10:37;17.20;62.10
27114;DHT22;14648;49.730;8.614;2023-09-30T07:13:03;17.20;62.10
27114;DHT22;14648;49.730;8.614;2023-09-30T07:15:29;17.30;62.20
27114;DHT22;14648;49.730;8.614;2023-09-30T07:17:55;17.30;62.20
27114;DHT22;14648;49.730;8.614;2023-09-30T07:20:21;17.30;62.20
27114;DHT22;14648;49.730;8.614;2023-09-30T07:22:48;17.20;62.00
27114;DHT22;14648;49.730;8.614;2023-09-30T07:25:14;17.30;62.10
27114;DHT22;14648;49.730;8.614;2023-09-30T07:27:45;17.20;62.00
27114;DHT22;14648;49.730;8.614;2023-09-30T07:30:12;17.30;62.10
27114;DHT22;14648;49.730;8.614;2023-09-30T07:32:41;17.30;62.00
27114;DHT22;14648;49.730;8.614;2023-09-30T07:35:08;17.30;62.00
27114;DHT22;14648;49.730;8.614;2023-09-30T07:37:34;17.30;62.00
27114;DHT22;14648;49.730;8.614;2023-09-30T07:40:00;17.30;62.00
27114;DHT22;14648;49.730;8.614;2023-09-30T07:42:26;17.40;62.10
27114;DHT22;14648;49.730;8.614;2023-09-30T07:44:51;17.40;62.00
27114;DHT22;14648;49.730;8.614;2023-09-30T07:47:17;17.50;62.10
27114;DHT22;14648;49.730;8.614;2023-09-30T07:49:43;17.60;62.00
27114;DHT22;14648;49.730;8.614;2023-09-30T07:52:08;17.60;62.00
27114;DHT22;14648;49.730;8.614;2023-09-30T07:54:34;17.70;62.00
27114;DHT22;14648;49.730;8.614;2023-09-30T07:57:00;17.80;61.90
27114;DHT22;14648;49.730;8.614;2023-09-30T07:59:26;17.80;61.80
27114;DHT22;14648;49.730;8.614;2023-09-30T08:01:52;17.90;61.80
27114;DHT22;14648;49.730;8.614;2023-09-30T08:04:18;17.90;61.70
27114;DHT22;14648;49.730;8.614;2023-09-30T08:06:44;17.90;61.80
27114;DHT22;14648;49.730;8.614;2023-09-30T08:09:13;18.00;61.70
27114;DHT22;14648;49.730;8.614;2023-09-30T08:11:39;18.00;61.60
27114;DHT22;14648;49.730;8.614;2023-09-30T08:14:05;18.10;61.70
27114;DHT22;14648;49.730;8.614;2023-09-30T08:16:38;18.10;61.70
27114;DHT22;14648;49.730;8.614;2023-09-30T08:19:04;18.20;61.70
27114;DHT22;14648;49.730;8.614;2023-09-30T08:21:30;18.40;61.50
27114;DHT22;14648;49.730;8.614;2023-09-30T08:23:57;18.50;61.40
27114;DHT22;14648;49.730;8.614;2023-09-30T08:26:22;18.60;61.20
27114;DHT22;14648;49.730;8.614;2023-09-30T08:28:48;18.60;61.20
27114;DHT22;14648;49.730;8.614;2023-09-30T08:31:14;18.60;61.10
27114;DHT22;14648;49.730;8.614;2023-09-30T08:33:40;18.70;61.00
27114;DHT22;14648;49.730;8.614;2023-09-30T08:36:10;18.70;60.80
27114;DHT22;14648;49.730;8.614;2023-09-30T08:38:38;18.80;60.70
27114;DHT22;14648;49.730;8.614;2023-09-30T08:41:06;18.90;60.80
27114;DHT22;14648;49.730;8.614;2023-09-30T08:43:39;18.90;60.80
27114;DHT22;14648;49.730;8.614;2023-09-30T08:46:06;19.00;60.60
27114;DHT22;14648;49.730;8.614;2023-09-30T08:48:33;19.10;60.60
27114;DHT22;14648;49.730;8.614;2023-09-30T08:51:00;19.20;60.60
27114;DHT22;14648;49.730;8.614;2023-09-30T08:53:26;19.20;60.80
27114;DHT22;14648;49.730;8.614;2023-09-30T08:55:56;19.30;60.70
27114;DHT22;14648;49.730;8.614;2023-09-30T08:58:26;19.40;60.70
27114;DHT22;14648;49.730;8.614;2023-09-30T09:00:52;19.50;60.60
27114;DHT22;14648;49.730;8.614;2023-09-30T09:03:19;19.50;60.60
27114;DHT22;14648;49.730;8.614;2023-09-30T09:05:46;19.70;60.60
27114;DHT22;14648;49.730;8.614;2023-09-30T09:08:18;19.80;60.30
27114;DHT22;14648;49.730;8.614;2023-09-30T09:10:59;19.90;60.10
27114;DHT22;14648;49.730;8.614;2023-09-30T09:13:26;20.00;59.90
27114;DHT22;14648;49.730;8.614;2023-09-30T09:16:09;20.10;60.00
27114;DHT22;14648;49.730;8.614;2023-09-30T09:18:35;20.10;59.80
27114;DHT22;14648;49.730;8.614;2023-09-30T09:21:11;20.30;59.70
27114;DHT22;14648;49.730;8.614;2023-09-30T09:23:46;20.40;59.40
27114;DHT22;14648;49.730;8.614;2023-09-30T09:26:26;20.50;59.40
27114;DHT22;14648;49.730;8.614;2023-09-30T09:28:57;20.60;59.30
27114;DHT22;14648;49.730;8.614;2023-09-30T09:31:28;20.70;58.90
27114;DHT22;14648;49.730;8.614;2023-09-30T09:33:58;20.80;58.80
27114;DHT22;14648;49.730;8.614;2023-09-30T09:36:45;20.90;58.90
27114;DHT22;14648;49.730;8.614;2023-09-30T09:39:11;21.00;58.50
27114;DHT22;14648;49.730;8.614;2023-09-30T09:41:54;21.10;58.60
27114;DHT22;14648;49.730;8.614;2023-09-30T09:44:23;21.10;58.30
27114;DHT22;14648;49.730;8.614;2023-09-30T09:46:52;21.20;58.20
27114;DHT22;14648;49.730;8.614;2023-09-30T09:49:19;21.30;58.10
27114;DHT22;14648;49.730;8.614;2023-09-30T09:51:46;21.30;58.00
27114;DHT22;14648;49.730;8.614;2023-09-30T09:54:15;21.40;58.00
27114;DHT22;14648;49.730;8.614;2023-09-30T09:56:45;21.40;58.40
27114;DHT22;14648;49.730;8.614;2023-09-30T09:59:14;21.50;57.60
27114;DHT22;14648;49.730;8.614;2023-09-30T10:01:40;21.60;57.30
27114;DHT22;14648;49.730;8.614;2023-09-30T10:04:06;21.70;57.30
27114;DHT22;14648;49.730;8.614;2023-09-30T10:06:34;21.70;57.20
27114;DHT22;14648;49.730;8.614;2023-09-30T10:09:09;21.70;57.00
27114;DHT22;14648;49.730;8.614;2023-09-30T10:11:37;21.80;56.80
27114;DHT22;14648;49.730;8.614;2023-09-30T10:14:04;21.90;56.90
27114;DHT22;14648;49.730;8.614;2023-09-30T10:19:08;22.00;56.50
27114;DHT22;14648;49.730;8.614;2023-09-30T10:21:34;22.10;56.30
27114;DHT22;14648;49.730;8.614;2023-09-30T10:29:48;22.20;55.70
27114;DHT22;14648;49.730;8.614;2023-09-30T10:32:18;22.20;55.70
27114;DHT22;14648;49.730;8.614;2023-09-30T10:34:48;22.30;55.60
27114;DHT22;14648;49.730;8.614;2023-09-30T10:37:24;22.30;55.10
27114;DHT22;14648;49.730;8.614;2023-09-30T10:39:54;22.30;55.10
27114;DHT22;14648;49.730;8.614;2023-09-30T10:50:55;22.60;54.50
27114;DHT22;14648;49.730;8.614;2023-09-30T10:53:22;22.60;54.20
27114;DHT22;14648;49.730;8.614;2023-09-30T10:55:58;22.60;53.90
27114;DHT22;14648;49.730;8.614;2023-09-30T10:58:54;22.60;53.70
27114;DHT22;14648;49.730;8.614;2023-09-30T11:01:22;22.80;53.80
27114;DHT22;14648;49.730;8.614;2023-09-30T11:03:49;22.80;53.60
27114;DHT22;14648;49.730;8.614;2023-09-30T11:06:20;22.90;53.50
27114;DHT22;14648;49.730;8.614;2023-09-30T11:08:55;23.00;53.20
27114;DHT22;14648;49.730;8.614;2023-09-30T11:12:12;23.10;52.70
27114;DHT22;14648;49.730;8.614;2023-09-30T11:14:30;23.10;52.60
27114;DHT22;14648;49.730;8.614;2023-09-30T11:17:01;23.20;52.40
27114;DHT22;14648;49.730;8.614;2023-09-30T11:19:47;23.20;52.20
27114;DHT22;14648;49.730;8.614;2023-09-30T11:22:14;23.20;52.00
27114;DHT22;14648;49.730;8.614;2023-09-30T11:24:40;23.20;52.10
27114;DHT22;14648;49.730;8.614;2023-09-30T11:27:07;23.30;52.00
27114;DHT22;14648;49.730;8.614;2023-09-30T11:29:34;23.30;51.80
27114;DHT22;14648;49.730;8.614;2023-09-30T11:32:00;23.40;51.80
27114;DHT22;14648;49.730;8.614;2023-09-30T11:34:34;23.40;51.70
27114;DHT22;14648;49.730;8.614;2023-09-30T11:37:03;23.40;51.20
27114;DHT22;14648;49.730;8.614;2023-09-30T11:39:31;23.50;51.10
27114;DHT22;14648;49.730;8.614;2023-09-30T11:41:58;23.50;50.90
27114;DHT22;14648;49.730;8.614;2023-09-30T11:44:26;23.70;50.80
27114;DHT22;14648;49.730;8.614;2023-09-30T11:46:59;23.70;50.50
27114;DHT22;14648;49.730;8.614;2023-09-30T11:49:36;23.80;50.30
27114;DHT22;14648;49.730;8.614;2023-09-30T11:52:10;23.90;50.20
27114;DHT22;14648;49.730;8.614;2023-09-30T11:54:39;23.90;50.00
27114;DHT22;14648;49.730;8.614;2023-09-30T11:57:16;24.00;49.80
27114;DHT22;14648;49.730;8.614;2023-09-30T11:59:43;24.00;49.50
27114;DHT22;14648;49.730;8.614;2023-09-30T12:02:14;24.00;49.60
27114;DHT22;14648;49.730;8.614;2023-09-30T12:04:44;24.10;49.50
27114;DHT22;14648;49.730;8.614;2023-09-30T12:07:11;24.20;49.10
27114;DHT22;14648;49.730;8.614;2023-09-30T12:09:37;24.30;48.90
27114;DHT22;14648;49.730;8.614;2023-09-30T12:12:05;24.50;48.80
27114;DHT22;14648;49.730;8.614;2023-09-30T12:14:34;24.50;48.40
27114;DHT22;14648;49.730;8.614;2023-09-30T12:17:00;24.60;48.30
27114;DHT22;14648;49.730;8.614;2023-09-30T12:19:26;24.60;48.00
27114;DHT22;14648;49.730;8.614;2023-09-30T12:21:52;24.60;47.90
27114;DHT22;14648;49.730;8.614;2023-09-30T12:24:18;24.70;48.20
27114;DHT22;14648;49.730;8.614;2023-09-30T12:26:47;24.70;48.30
27114;DHT22;14648;49.730;8.614;2023-09-30T12:29:21;24.80;48.40
27114;DHT22;14648;49.730;8.614;2023-09-30T12:31:49;24.90;47.90
27114;DHT22;14648;49.730;8.614;2023-09-30T12:34:15;25.00;47.80
27114;DHT22;14648;49.730;8.614;2023-09-30T12:36:42;25.10;47.50
27114;DHT22;14648;49.730;8.614;2023-09-30T12:39:09;25.10;47.30
27114;DHT22;14648;49.730;8.614;2023-09-30T12:41:40;25.20;47.00
27114;DHT22;14648;49.730;8.614;2023-09-30T12:44:08;25.20;46.80
27114;DHT22;14648;49.730;8.614;2023-09-30T12:46:34;25.30;47.00
27114;DHT22;14648;49.730;8.614;2023-09-30T12:49:03;25.30;46.90
27114;DHT22;14648;49.730;8.614;2023-09-30T12:51:29;25.40;46.60
27114;DHT22;14648;49.730;8.614;2023-09-30T12:53:56;25.40;46.30
27114;DHT22;14648;49.730;8.614;2023-09-30T12:56:23;25.60;46.00
27114;DHT22;14648;49.730;8.614;2023-09-30T12:58:49;25.60;45.90
27114;DHT22;14648;49.730;8.614;2023-09-30T13:01:15;25.70;45.70
27114;DHT22;14648;49.730;8.614;2023-09-30T13:03:46;25.80;45.60
27114;DHT22;14648;49.730;8.614;2023-09-30T13:06:12;25.80;45.30
27114;DHT22;14648;49.730;8.614;2023-09-30T13:08:37;25.90;45.00
27114;DHT22;14648;49.730;8.614;2023-09-30T13:11:04;25.90;44.80
27114;DHT22;14648;49.730;8.614;2023-09-30T13:13:30;26.00;45.00
27114;DHT22;14648;49.730;8.614;2023-09-30T13:15:59;26.00;45.10
27114;DHT22;14648;49.730;8.614;2023-09-30T13:18:25;26.10;45.10
27114;DHT22;14648;49.730;8.614;2023-09-30T13:20:51;26.10;44.70
27114;DHT22;14648;49.730;8.614;2023-09-30T13:23:20;26.10;44.70
27114;DHT22;14648;49.730;8.614;2023-09-30T13:25:46;26.10;44.60
27114;DHT22;14648;49.730;8.614;2023-09-30T13:28:13;26.10;44.80
27114;DHT22;14648;49.730;8.614;2023-09-30T13:30:39;26.10;44.50
27114;DHT22;14648;49.730;8.614;2023-09-30T13:33:05;26.10;44.40
27114;DHT22;14648;49.730;8.614;2023-09-30T13:35:31;26.10;44.20
27114;DHT22;14648;49.730;8.614;2023-09-30T13:37:57;26.00;43.80
27114;DHT22;14648;49.730;8.614;2023-09-30T13:40:23;25.90;43.30
27114;DHT22;14648;49.730;8.614;2023-09-30T13:42:49;25.80;43.20
27114;DHT22;14648;49.730;8.614;2023-09-30T13:45:15;25.80;43.10
27114;DHT22;14648;49.730;8.614;2023-09-30T13:47:43;25.60;43.00
27114;DHT22;14648;49.730;8.614;2023-09-30T13:50:09;25.50;43.10
27114;DHT22;14648;49.730;8.614;2023-09-30T13:52:35;25.40;43.20
27114;DHT22;14648;49.730;8.614;2023-09-30T13:55:01;25.30;43.20
27114;DHT22;14648;49.730;8.614;2023-09-30T13:57:28;25.20;43.60
27114;DHT22;14648;49.730;8.614;2023-09-30T13:59:54;25.10;43.00
27114;DHT22;14648;49.730;8.614;2023-09-30T14:02:20;25.10;43.00
27114;DHT22;14648;49.730;8.614;2023-09-30T14:04:46;25.00;43.00
27114;DHT22;14648;49.730;8.614;2023-09-30T14:07:38;25.00;43.00
27114;DHT22;14648;49.730;8.614;2023-09-30T14:10:06;25.00;42.90
27114;DHT22;14648;49.730;8.614;2023-09-30T14:12:32;24.90;42.90
27114;DHT22;14648;49.730;8.614;2023-09-30T14:14:59;24.90;43.00
27114;DHT22;14648;49.730;8.614;2023-09-30T14:17:25;24.90;43.00
27114;DHT22;14648;49.730;8.614;2023-09-30T14:19:51;24.90;42.70
27114;DHT22;14648;49.730;8.614;2023-09-30T14:22:16;24.80;42.50
27114;DHT22;14648;49.730;8.614;2023-09-30T14:24:42;24.70;42.40
27114;DHT22;14648;49.730;8.614;2023-09-30T14:27:08;24.70;42.30
27114;DHT22;14648;49.730;8.614;2023-09-30T14:29:34;24.70;42.50
27114;DHT22;14648;49.730;8.614;2023-09-30T14:31:59;24.70;42.40
27114;DHT22;14648;49.730;8.614;2023-09-30T14:34:25;24.70;42.30
27114;DHT22;14648;49.730;8.614;2023-09-30T14:36:51;24.60;42.30
27114;DHT22;14648;49.730;8.614;2023-09-30T14:39:18;24.60;42.40
27114;DHT22;14648;49.730;8.614;2023-09-30T14:41:44;24.50;42.40
27114;DHT22;14648;49.730;8.614;2023-09-30T14:44:10;24.40;42.40
27114;DHT22;14648;49.730;8.614;2023-09-30T14:46:38;24.30;42.50
27114;DHT22;14648;49.730;8.614;2023-09-30T14:49:04;24.30;42.40
27114;DHT22;14648;49.730;8.614;2023-09-30T14:51:32;24.10;42.40
27114;DHT22;14648;49.730;8.614;2023-09-30T14:53:58;24.00;42.30
27114;DHT22;14648;49.730;8.614;2023-09-30T14:56:24;23.90;42.30
27114;DHT22;14648;49.730;8.614;2023-09-30T14:58:49;23.90;42.30
27114;DHT22;14648;49.730;8.614;2023-09-30T15:01:15;23.80;42.30
27114;DHT22;14648;49.730;8.614;2023-09-30T15:03:41;23.70;42.40
27114;DHT22;14648;49.730;8.614;2023-09-30T15:06:07;23.70;42.40
27114;DHT22;14648;49.730;8.614;2023-09-30T15:08:33;23.50;42.40
27114;DHT22;14648;49.730;8.614;2023-09-30T15:10:59;23.40;43.10
27114;DHT22;14648;49.730;8.614;2023-09-30T15:13:26;23.30;42.50
27114;DHT22;14648;49.730;8.614;2023-09-30T15:15:53;23.20;42.50
27114;DHT22;14648;49.730;8.614;2023-09-30T15:18:18;23.10;42.60
27114;DHT22;14648;49.730;8.614;2023-09-30T15:20:44;23.10;42.80
27114;DHT22;14648;49.730;8.614;2023-09-30T15:23:10;23.00;42.70
27114;DHT22;14648;49.730;8.614;2023-09-30T15:25:43;22.90;42.80
27114;DHT22;14648;49.730;8.614;2023-09-30T15:28:10;22.80;42.80
27114;DHT22;14648;49.730;8.614;2023-09-30T15:30:36;22.70;42.90
27114;DHT22;14648;49.730;8.614;2023-09-30T15:33:02;22.70;43.10
27114;DHT22;14648;49.730;8.614;2023-09-30T15:35:28;22.60;43.10
27114;DHT22;14648;49.730;8.614;2023-09-30T15:37:54;22.50;43.20
27114;DHT22;14648;49.730;8.614;2023-09-30T15:40:20;22.50;43.30
27114;DHT22;14648;49.730;8.614;2023-09-30T15:42:45;22.40;43.30
27114;DHT22;14648;49.730;8.614;2023-09-30T15:45:12;22.40;43.40
27114;DHT22;14648;49.730;8.614;2023-09-30T15:47:38;22.30;43.60
27114;DHT22;14648;49.730;8.614;2023-09-30T15:50:05;22.20;43.60